createdAt,value
2018-02-11T00:00:51.120Z,16.00
2018-02-11T00:03:20.036Z,14.37
2018-02-11T00:05:48.177Z,15.93
2018-02-11T00:08:17.098Z,14.23
2018-02-11T00:10:46.305Z,15.30
2018-02-11T00:13:14.461Z,14.70
2018-02-11T00:15:42.592Z,14.63
2018-02-11T00:18:10.741Z,14.67
2018-02-11T00:20:38.892Z,14.97
2018-02-11T00:23:18.829Z,11.87
2018-02-11T00:25:46.969Z,13.73
2018-02-11T00:28:15.121Z,14.97
2018-02-11T00:30:51.663Z,13.23
2018-02-11T00:33:19.808Z,13.33
2018-02-11T00:35:47.945Z,13.37
2018-02-11T00:38:16.097Z,12.67
2018-02-11T00:40:51.498Z,13.23
2018-02-11T00:43:19.640Z,12.80
2018-02-11T00:45:47.774Z,11.67
2018-02-11T00:48:16.694Z,14.53
2018-02-11T00:50:44.827Z,13.47
2018-02-11T00:53:12.976Z,14.57
2018-02-11T00:55:41.877Z,13.23
2018-02-11T00:58:10.035Z,13.83
2018-02-11T01:00:42.430Z,12.73
2018-02-11T01:03:10.576Z,12.27
2018-02-11T01:05:39.473Z,13.80
2018-02-11T01:08:08.391Z,12.50
2018-02-11T01:10:37.486Z,12.43
2018-02-11T01:13:05.636Z,12.83
2018-02-11T01:15:33.797Z,12.33
2018-02-11T01:18:02.757Z,13.57
2018-02-11T01:20:30.889Z,12.53
2018-02-11T01:22:59.036Z,12.50
2018-02-11T01:25:27.928Z,12.97
2018-02-11T01:27:56.851Z,13.07
2018-02-11T01:30:32.295Z,13.60
2018-02-11T01:33:00.446Z,13.70
2018-02-11T01:35:28.584Z,14.40
2018-02-11T01:37:56.732Z,14.53
2018-02-11T01:40:32.066Z,13.37
2018-02-11T01:43:00.228Z,14.10
2018-02-11T01:45:28.365Z,14.57
2018-02-11T01:47:56.516Z,14.30
2018-02-11T01:50:24.646Z,14.37
2018-02-11T01:52:52.784Z,12.90
2018-02-11T01:55:21.708Z,13.30
2018-02-11T01:57:49.833Z,14.33
2018-02-11T02:00:17.981Z,14.67
2018-02-11T02:02:46.124Z,16.90
2018-02-11T02:05:14.276Z,16.03
2018-02-11T02:07:43.209Z,15.07
2018-02-11T02:10:15.069Z,14.90
2018-02-11T02:12:43.204Z,16.07
2018-02-11T02:15:11.368Z,15.40
2018-02-11T02:17:39.500Z,16.20
2018-02-11T02:20:09.604Z,15.17
2018-02-11T02:22:37.734Z,15.67
2018-02-11T02:25:06.645Z,14.77
2018-02-11T02:27:34.772Z,15.23
2018-02-11T02:30:04.866Z,14.43
2018-02-11T02:32:32.996Z,15.97
2018-02-11T02:35:01.153Z,16.27
2018-02-11T02:37:30.048Z,16.20
2018-02-11T02:40:09.025Z,14.77
2018-02-11T02:42:37.148Z,15.17
2018-02-11T02:45:06.061Z,14.73
2018-02-11T02:47:34.189Z,14.37
2018-02-11T02:50:07.037Z,13.93
2018-02-11T02:52:35.171Z,13.43
2018-02-11T02:55:03.360Z,14.07
2018-02-11T02:57:31.494Z,14.57
2018-02-11T03:00:03.217Z,13.70
2018-02-11T03:02:31.353Z,13.00
2018-02-11T03:04:59.543Z,13.00
2018-02-11T03:07:27.681Z,12.93
2018-02-11T03:09:57.525Z,9.97
2018-02-11T03:12:25.677Z,12.53
2018-02-11T03:14:54.608Z,13.50
2018-02-11T03:17:22.761Z,11.93
2018-02-11T03:19:54.217Z,12.90
2018-02-11T03:22:22.368Z,12.17
2018-02-11T03:24:51.265Z,12.83
2018-02-11T03:27:19.416Z,12.97
2018-02-11T03:29:52.133Z,12.60
2018-02-11T03:32:20.285Z,12.00
2018-02-11T03:34:49.186Z,12.67
2018-02-11T03:37:17.332Z,12.23
2018-02-11T03:39:45.460Z,11.53
2018-02-11T03:42:13.614Z,11.33
2018-02-11T03:44:41.745Z,11.57
2018-02-11T03:47:09.894Z,10.67
2018-02-11T03:49:41.413Z,11.67
2018-02-11T03:52:09.605Z,11.53
2018-02-11T03:54:37.737Z,11.63
2018-02-11T03:57:06.658Z,11.40
2018-02-11T03:59:34.792Z,10.70
2018-02-11T04:02:03.704Z,11.60
2018-02-11T04:04:31.835Z,10.40
2018-02-11T04:06:59.984Z,10.30
2018-02-11T04:09:32.125Z,10.57
2018-02-11T04:12:00.309Z,9.97
2018-02-11T04:14:29.204Z,10.93
2018-02-11T04:16:57.326Z,11.00
2018-02-11T04:19:26.240Z,10.00
2018-02-11T04:21:54.368Z,10.43
2018-02-11T04:24:22.513Z,10.70
2018-02-11T04:26:50.640Z,10.53
2018-02-11T04:29:18.828Z,9.50
2018-02-11T04:31:46.952Z,10.00
2018-02-11T04:34:15.089Z,10.73
2018-02-11T04:36:43.212Z,10.40
2018-02-11T04:39:11.361Z,11.93
2018-02-11T04:41:39.488Z,11.07
2018-02-11T04:44:07.632Z,10.80
2018-02-11T04:46:35.760Z,10.97
2018-02-11T04:49:04.864Z,11.23
2018-02-11T04:51:32.998Z,10.17
2018-02-11T04:54:01.915Z,10.10
2018-02-11T04:56:30.045Z,10.23
2018-02-11T04:59:00.949Z,10.40
2018-02-11T05:01:29.080Z,10.87
2018-02-11T05:03:57.237Z,10.47
2018-02-11T05:06:26.136Z,11.40
2018-02-11T05:08:55.432Z,11.23
2018-02-11T05:11:24.330Z,12.13
2018-02-11T05:13:52.485Z,10.67
2018-02-11T05:16:21.393Z,11.43
2018-02-11T05:18:49.553Z,11.30
2018-02-11T05:21:17.684Z,12.40
2018-02-11T05:23:45.836Z,11.33
2018-02-11T05:26:13.977Z,11.33
2018-02-11T05:28:55.844Z,11.33
2018-02-11T05:31:23.976Z,11.37
2018-02-11T05:33:52.122Z,11.83
2018-02-11T05:36:21.017Z,13.33
2018-02-11T05:38:49.161Z,11.60
2018-02-11T05:41:17.290Z,13.07
2018-02-11T05:43:45.445Z,13.97
2018-02-11T05:46:13.573Z,12.13
2018-02-11T05:48:41.720Z,12.70
2018-02-11T05:51:09.844Z,12.80
2018-02-11T05:53:38.759Z,11.73
2018-02-11T05:56:06.885Z,12.63
2018-02-11T05:58:51.885Z,12.70
2018-02-11T06:01:20.021Z,12.53
2018-02-11T06:03:48.164Z,10.90
2018-02-11T06:06:16.293Z,12.40
2018-02-11T06:08:50.656Z,11.60
2018-02-11T06:11:18.788Z,12.50
2018-02-11T06:13:47.699Z,12.27
2018-02-11T06:16:15.832Z,13.00
2018-02-11T06:18:48.265Z,14.50
2018-02-11T06:21:16.392Z,14.07
2018-02-11T06:23:45.288Z,13.40
2018-02-11T06:26:13.444Z,12.47
2018-02-11T06:28:55.464Z,12.53
2018-02-11T06:31:23.612Z,13.50
2018-02-11T06:33:51.820Z,14.43
2018-02-11T06:36:19.968Z,14.33
2018-02-11T06:38:48.860Z,14.93
2018-02-11T06:41:17.788Z,13.93
2018-02-11T06:43:45.916Z,13.47
2018-02-11T06:46:14.862Z,15.27
2018-02-11T06:48:50.213Z,15.23
2018-02-11T06:51:18.405Z,14.03
2018-02-11T06:53:46.539Z,14.47
2018-02-11T06:56:14.688Z,14.17
2018-02-11T06:58:52.719Z,13.40
2018-02-11T07:01:20.869Z,14.43
2018-02-11T07:03:48.996Z,14.80
2018-02-11T07:06:17.137Z,13.63
2018-02-11T07:08:52.364Z,13.77
2018-02-11T07:11:20.514Z,14.33
2018-02-11T07:13:48.677Z,14.63
2018-02-11T07:16:17.597Z,13.63
2018-02-11T07:18:49.173Z,13.70
2018-02-11T07:21:17.332Z,14.53
2018-02-11T07:23:45.464Z,15.03
2018-02-11T07:26:13.677Z,13.63
2018-02-11T07:28:42.869Z,14.80
2018-02-11T07:31:11.064Z,13.73
2018-02-11T07:33:39.196Z,15.93
2018-02-11T07:36:08.118Z,15.00
2018-02-11T07:38:40.075Z,13.13
2018-02-11T07:41:08.244Z,14.53
2018-02-11T07:43:36.372Z,14.27
2018-02-11T07:46:04.525Z,12.93
2018-02-11T07:48:50.246Z,12.87
2018-02-11T07:51:18.400Z,17.77
2018-02-11T07:53:46.536Z,14.83
2018-02-11T07:56:14.685Z,13.93
2018-02-11T07:58:44.837Z,13.67
2018-02-11T08:01:12.984Z,14.33
2018-02-11T08:03:41.162Z,14.03
2018-02-11T08:06:10.069Z,13.00
2018-02-11T08:08:38.197Z,15.17
2018-02-11T08:11:07.125Z,12.87
2018-02-11T08:13:35.264Z,13.13
2018-02-11T08:16:04.181Z,12.37
2018-02-11T08:18:44.132Z,13.07
2018-02-11T08:21:12.288Z,11.97
2018-02-11T08:23:40.433Z,12.80
2018-02-11T08:26:08.590Z,12.10
2018-02-11T08:28:37.651Z,12.00
2018-02-11T08:31:05.799Z,11.90
2018-02-11T08:33:33.949Z,10.83
2018-02-11T08:36:02.149Z,11.53
2018-02-11T08:38:39.049Z,10.20
2018-02-11T08:41:07.196Z,11.40
2018-02-11T08:43:36.093Z,11.20
2018-02-11T08:46:04.246Z,11.03
2018-02-11T08:48:37.238Z,10.80
2018-02-11T08:51:06.193Z,9.60
2018-02-11T08:53:34.330Z,10.17
2018-02-11T08:56:02.480Z,10.00
2018-02-11T08:58:41.548Z,8.67
2018-02-11T09:01:09.681Z,9.10
2018-02-11T09:03:38.594Z,8.43
2018-02-11T09:06:06.720Z,7.87
2018-02-11T09:08:34.860Z,7.47
2018-02-11T09:11:02.988Z,6.97
2018-02-11T09:13:31.896Z,6.83
2018-02-11T09:16:00.029Z,8.83
2018-02-11T09:18:28.185Z,7.20
2018-02-11T09:20:56.327Z,7.07
2018-02-11T09:23:24.472Z,7.93
2018-02-11T09:25:53.369Z,6.17
2018-02-11T09:28:21.508Z,7.33
2018-02-11T09:30:49.639Z,7.37
2018-02-11T09:33:17.787Z,7.00
2018-02-11T09:35:45.928Z,6.40
2018-02-11T09:38:14.072Z,6.80
2018-02-11T09:40:47.532Z,6.63
2018-02-11T09:43:15.677Z,6.23
2018-02-11T09:45:43.805Z,7.73
2018-02-11T09:48:11.940Z,6.20
2018-02-11T09:50:45.356Z,7.87
2018-02-11T09:53:13.533Z,7.13
2018-02-11T09:55:42.400Z,5.87
2018-02-11T09:58:11.349Z,7.90
2018-02-11T10:00:53.402Z,7.20
2018-02-11T10:03:21.609Z,5.97
2018-02-11T10:05:49.739Z,8.60
2018-02-11T10:08:18.661Z,8.13
2018-02-11T10:10:46.800Z,8.33
2018-02-11T10:13:15.697Z,7.60
2018-02-11T10:15:44.606Z,5.33
2018-02-11T10:18:12.740Z,9.93
2018-02-11T10:20:41.664Z,8.80
2018-02-11T10:23:09.793Z,9.13
2018-02-11T10:25:37.937Z,8.03
2018-02-11T10:28:06.064Z,9.10
2018-02-11T10:30:34.972Z,8.40
2018-02-11T10:33:03.105Z,8.93
2018-02-11T10:35:31.252Z,7.83
2018-02-11T10:37:59.376Z,9.53
2018-02-11T10:40:30.244Z,8.17
2018-02-11T10:42:58.373Z,7.97
2018-02-11T10:45:27.282Z,9.43
2018-02-11T10:47:55.416Z,10.83
2018-02-11T10:50:23.560Z,9.27
2018-02-11T10:52:51.688Z,10.13
2018-02-11T10:55:20.582Z,11.27
2018-02-11T10:57:49.496Z,10.00
2018-02-11T11:00:19.608Z,12.60
2018-02-11T11:02:47.753Z,11.87
2018-02-11T11:05:16.652Z,10.83
2018-02-11T11:07:45.565Z,11.60
2018-02-11T11:10:14.669Z,15.50
2018-02-11T11:12:42.814Z,9.90
2018-02-11T11:15:11.709Z,12.03
2018-02-11T11:17:39.857Z,9.33
2018-02-11T11:20:07.984Z,10.37
2018-02-11T11:22:36.137Z,9.97
2018-02-11T11:25:04.270Z,9.30
2018-02-11T11:27:32.430Z,9.23
2018-02-11T11:30:01.491Z,8.93
2018-02-11T11:32:29.640Z,11.83
2018-02-11T11:34:57.782Z,12.33
2018-02-11T11:37:25.949Z,11.60
2018-02-11T11:40:01.253Z,17.07
2018-02-11T11:42:29.397Z,9.17
2018-02-11T11:44:58.280Z,9.37
2018-02-11T11:47:27.192Z,9.87
2018-02-11T11:49:56.302Z,9.33
2018-02-11T11:52:24.487Z,11.90
2018-02-11T11:54:52.615Z,12.93
2018-02-11T11:57:21.516Z,13.20
2018-02-11T11:59:54.329Z,9.77
2018-02-11T12:02:22.462Z,10.67
2018-02-11T12:04:51.377Z,12.67
2018-02-11T12:07:19.513Z,12.03
2018-02-11T12:09:54.089Z,11.63
2018-02-11T12:12:22.284Z,11.50
2018-02-11T12:14:50.442Z,11.87
2018-02-11T12:17:18.597Z,10.53
2018-02-11T12:19:46.748Z,14.73
2018-02-11T12:22:15.677Z,11.03
2018-02-11T12:24:43.885Z,9.90
2018-02-11T12:27:12.071Z,8.90
2018-02-11T12:29:41.314Z,9.10
2018-02-11T12:32:09.445Z,10.77
2018-02-11T12:34:38.362Z,11.17
2018-02-11T12:37:06.492Z,10.47
2018-02-11T12:39:34.646Z,10.30
2018-02-11T12:42:02.777Z,11.07
2018-02-11T12:44:30.965Z,11.00
2018-02-11T12:46:59.085Z,10.90
2018-02-11T12:49:27.293Z,8.97
2018-02-11T12:51:55.421Z,9.07
2018-02-11T12:54:23.610Z,10.27
2018-02-11T12:56:51.740Z,10.90
2018-02-11T12:59:32.685Z,10.67
2018-02-11T13:02:00.814Z,8.97
2018-02-11T13:04:28.993Z,9.77
2018-02-11T13:06:57.121Z,10.03
2018-02-11T13:09:25.252Z,8.73
2018-02-11T13:11:53.397Z,8.03
2018-02-11T13:14:21.525Z,9.30
2018-02-11T13:16:49.669Z,9.80
2018-02-11T13:19:20.541Z,9.97
2018-02-11T13:21:48.689Z,9.67
2018-02-11T13:24:17.584Z,9.50
2018-02-11T13:26:46.498Z,9.90
2018-02-11T13:29:21.936Z,9.40
2018-02-11T13:31:50.084Z,9.70
2018-02-11T13:34:18.209Z,9.80
2018-02-11T13:36:46.352Z,9.37
2018-02-11T13:39:22.529Z,8.37
2018-02-11T13:41:51.525Z,7.93
2018-02-11T13:44:19.664Z,8.20
2018-02-11T13:46:48.569Z,8.50
2018-02-11T13:49:17.716Z,9.00
2018-02-11T13:51:45.865Z,7.80
2018-02-11T13:54:13.989Z,8.37
2018-02-11T13:56:42.900Z,9.10
2018-02-11T13:59:11.060Z,9.47
2018-02-11T14:01:40.044Z,6.83
2018-02-11T14:04:08.944Z,9.13
2018-02-11T14:06:37.081Z,7.50
2018-02-11T14:09:06.171Z,7.90
2018-02-11T14:11:34.289Z,6.77
2018-02-11T14:14:02.436Z,6.70
2018-02-11T14:16:30.581Z,6.83
2018-02-11T14:18:58.737Z,6.87
2018-02-11T14:21:26.860Z,5.43
2018-02-11T14:23:55.782Z,6.10
2018-02-11T14:26:23.917Z,6.53
2018-02-11T14:28:52.053Z,6.53
2018-02-11T14:31:20.187Z,6.43
2018-02-11T14:33:48.349Z,6.93
2018-02-11T14:36:17.241Z,7.37
2018-02-11T14:38:45.390Z,6.87
2018-02-11T14:41:13.521Z,6.93
2018-02-11T14:43:41.673Z,8.60
2018-02-11T14:46:09.817Z,8.00
2018-02-11T14:48:42.567Z,7.53
2018-02-11T14:51:10.701Z,7.37
2018-02-11T14:53:38.889Z,6.17
2018-02-11T14:56:07.077Z,6.37
2018-02-11T14:58:37.193Z,6.17
2018-02-11T15:01:05.316Z,5.87
2018-02-11T15:03:34.213Z,5.63
2018-02-11T15:06:03.131Z,5.30
2018-02-11T15:08:32.221Z,5.57
2018-02-11T15:11:00.366Z,6.00
2018-02-11T15:13:29.265Z,4.93
2018-02-11T15:15:58.172Z,4.10
2018-02-11T15:18:26.294Z,3.67
2018-02-11T15:20:54.444Z,4.10
2018-02-11T15:23:22.562Z,4.40
2018-02-11T15:25:51.477Z,4.43
2018-02-11T15:28:19.661Z,3.73
2018-02-11T15:30:47.809Z,3.50
2018-02-11T15:33:15.950Z,3.13
2018-02-11T15:35:44.088Z,3.20
2018-02-11T15:38:12.209Z,2.67
2018-02-11T15:40:40.358Z,3.20
2018-02-11T15:43:08.489Z,3.53
2018-02-11T15:45:36.624Z,3.07
2018-02-11T15:48:04.759Z,3.33
2018-02-11T15:50:34.881Z,3.47
2018-02-11T15:53:03.769Z,3.80
2018-02-11T15:55:32.678Z,4.10
2018-02-11T15:58:00.793Z,3.97
2018-02-11T16:00:36.889Z,5.60
2018-02-11T16:03:05.024Z,3.70
2018-02-11T16:05:33.937Z,4.17
2018-02-11T16:08:02.061Z,4.40
2018-02-11T16:10:30.201Z,3.97
2018-02-11T16:12:58.337Z,5.03
2018-02-11T16:15:27.281Z,3.77
2018-02-11T16:17:55.405Z,3.43
2018-02-11T16:20:25.557Z,3.17
2018-02-11T16:22:53.687Z,3.03
2018-02-11T16:25:22.598Z,3.70
2018-02-11T16:27:50.740Z,3.40
2018-02-11T16:30:24.166Z,3.60
2018-02-11T16:32:52.326Z,3.70
2018-02-11T16:35:21.233Z,5.20
2018-02-11T16:37:49.370Z,5.40
2018-02-11T16:40:18.361Z,3.50
2018-02-11T16:42:46.594Z,3.27
2018-02-11T16:45:14.789Z,3.23
2018-02-11T16:47:43.037Z,3.33
2018-02-11T16:50:13.216Z,3.77
2018-02-11T16:52:42.170Z,3.17
2018-02-11T16:55:10.336Z,4.10
2018-02-11T16:57:38.534Z,3.97
2018-02-11T17:00:15.197Z,3.70
2018-02-11T17:02:43.437Z,3.30
2018-02-11T17:05:12.358Z,3.77
2018-02-11T17:07:40.586Z,7.00
2018-02-11T17:10:19.685Z,4.83
2018-02-11T17:12:47.934Z,10.13
2018-02-11T17:15:16.117Z,5.03
2018-02-11T17:17:44.331Z,4.03
2018-02-11T17:20:20.337Z,4.47
2018-02-11T17:22:48.511Z,4.03
2018-02-11T17:25:16.703Z,3.87
2018-02-11T17:27:44.889Z,4.00
2018-02-11T17:30:13.074Z,4.20
2018-02-11T17:32:42.088Z,4.33
2018-02-11T17:35:10.293Z,4.03
2018-02-11T17:37:38.484Z,4.50
2018-02-11T17:40:06.641Z,4.30
2018-02-11T17:42:34.781Z,4.93
2018-02-11T17:45:03.022Z,4.33
2018-02-11T17:47:31.219Z,4.73
2018-02-11T17:50:01.168Z,8.83
2018-02-11T17:52:29.324Z,8.10
2018-02-11T17:54:57.504Z,8.03
2018-02-11T17:57:25.695Z,7.13
2018-02-11T17:59:54.869Z,6.23
2018-02-11T18:02:23.046Z,5.43
2018-02-11T18:04:51.241Z,5.87
2018-02-11T18:07:19.403Z,5.50
2018-02-11T18:09:51.560Z,6.10
2018-02-11T18:12:19.685Z,6.90
2018-02-11T18:14:47.829Z,6.20
2018-02-11T18:17:15.953Z,6.60
2018-02-11T18:19:44.856Z,5.77
2018-02-11T18:22:12.982Z,6.10
2018-02-11T18:24:41.141Z,7.47
2018-02-11T18:27:09.268Z,7.13
2018-02-11T18:30:02.139Z,6.27
2018-02-11T18:32:30.272Z,5.50
2018-02-11T18:34:58.443Z,5.47
2018-02-11T18:37:26.566Z,5.50
2018-02-11T18:39:55.613Z,5.63
2018-02-11T18:42:23.760Z,6.90
2018-02-11T18:44:51.905Z,8.40
2018-02-11T18:47:20.049Z,6.77
2018-02-11T18:49:57.589Z,6.50
2018-02-11T18:52:25.730Z,6.23
2018-02-11T18:54:53.886Z,5.70
2018-02-11T18:57:22.789Z,5.30
2018-02-11T18:59:52.916Z,6.10
2018-02-11T19:02:21.063Z,5.47
2018-02-11T19:04:49.992Z,7.73
2018-02-11T19:07:18.136Z,7.43
2018-02-11T19:09:58.617Z,6.67
2018-02-11T19:12:26.768Z,7.23
2018-02-11T19:14:55.661Z,5.67
2018-02-11T19:17:24.571Z,6.03
2018-02-11T19:19:54.688Z,5.10
2018-02-11T19:22:22.842Z,5.43
2018-02-11T19:24:51.729Z,4.43
2018-02-11T19:27:19.906Z,5.07
2018-02-11T19:29:56.804Z,4.23
2018-02-11T19:32:24.961Z,4.73
2018-02-11T19:34:53.860Z,4.57
2018-02-11T19:37:22.007Z,4.50
2018-02-11T19:39:50.133Z,4.30
2018-02-11T19:42:18.276Z,4.50
2018-02-11T19:44:46.401Z,4.47
2018-02-11T19:47:14.548Z,4.17
2018-02-11T19:49:42.696Z,4.27
2018-02-11T19:52:10.833Z,4.40
2018-02-11T19:54:38.953Z,4.17
2018-02-11T19:57:07.145Z,4.50
2018-02-11T19:59:53.397Z,4.00
2018-02-11T20:02:22.300Z,3.97
2018-02-11T20:04:50.426Z,4.70
2018-02-11T20:07:18.566Z,4.07
2018-02-11T20:09:46.709Z,3.87
2018-02-11T20:12:15.619Z,4.40
2018-02-11T20:14:43.753Z,4.40
2018-02-11T20:17:11.918Z,5.03
2018-02-11T20:19:40.051Z,4.33
2018-02-11T20:22:08.192Z,5.17
2018-02-11T20:24:36.315Z,5.13
2018-02-11T20:27:04.493Z,5.67
2018-02-11T20:29:32.634Z,4.17
2018-02-11T20:32:00.757Z,5.37
2018-02-11T20:34:28.901Z,4.60
2018-02-11T20:36:57.025Z,4.70
2018-02-11T20:39:36.402Z,4.93
2018-02-11T20:42:04.525Z,4.43
2018-02-11T20:44:33.448Z,4.27
2018-02-11T20:47:01.574Z,5.70
2018-02-11T20:49:37.056Z,4.33
2018-02-11T20:52:05.176Z,4.63
2018-02-11T20:54:33.319Z,5.10
2018-02-11T20:57:01.444Z,6.20
2018-02-11T20:59:29.597Z,5.23
2018-02-11T21:01:57.725Z,4.67
2018-02-11T21:04:25.870Z,4.40
2018-02-11T21:06:54.780Z,4.90
2018-02-11T21:09:23.917Z,4.50
2018-02-11T21:11:52.041Z,4.27
2018-02-11T21:14:20.976Z,4.20
2018-02-11T21:16:49.093Z,5.10
2018-02-11T21:19:26.641Z,5.67
2018-02-11T21:21:54.778Z,7.87
2018-02-11T21:24:22.927Z,7.87
2018-02-11T21:26:51.832Z,10.30
2018-02-11T21:29:30.389Z,6.43
2018-02-11T21:31:58.521Z,5.27
2018-02-11T21:34:27.428Z,6.20
2018-02-11T21:36:55.601Z,8.87
2018-02-11T21:39:24.519Z,8.13
2018-02-11T21:41:52.644Z,6.93
2018-02-11T21:44:21.554Z,6.37
2018-02-11T21:46:49.701Z,6.07
2018-02-11T21:49:21.921Z,4.57
2018-02-11T21:51:50.049Z,6.17
2018-02-11T21:54:18.204Z,8.33
2018-02-11T21:56:46.328Z,10.17
2018-02-11T21:59:24.240Z,9.67
2018-02-11T22:01:52.364Z,5.07
2018-02-11T22:04:21.276Z,4.67
2018-02-11T22:06:49.398Z,5.73
2018-02-11T22:09:21.225Z,4.70
2018-02-11T22:11:49.384Z,5.00
2018-02-11T22:14:18.261Z,5.43
2018-02-11T22:16:47.162Z,4.77
2018-02-11T22:19:15.297Z,5.20
2018-02-11T22:21:44.216Z,5.30
2018-02-11T22:24:13.100Z,6.63
2018-02-11T22:26:42.057Z,5.43
2018-02-11T22:29:11.121Z,5.90
2018-02-11T22:31:39.264Z,5.10
2018-02-11T22:34:08.153Z,4.77
2018-02-11T22:36:37.060Z,4.50
2018-02-11T22:39:06.153Z,5.07
2018-02-11T22:41:34.301Z,5.17
2018-02-11T22:44:03.196Z,4.50
2018-02-11T22:46:32.101Z,4.70
2018-02-11T22:49:00.220Z,5.23
2018-02-11T22:51:28.368Z,5.40
2018-02-11T22:53:56.493Z,4.80
2018-02-11T22:56:24.628Z,4.83
2018-02-11T22:59:01.705Z,4.37
2018-02-11T23:01:29.889Z,4.90
2018-02-11T23:03:58.034Z,4.67
2018-02-11T23:06:26.165Z,4.67
2018-02-11T23:09:06.120Z,4.50
2018-02-11T23:11:35.101Z,4.53
2018-02-11T23:14:03.274Z,4.90
2018-02-11T23:16:31.532Z,4.03
2018-02-11T23:19:14.629Z,5.47
2018-02-11T23:21:42.774Z,4.50
2018-02-11T23:24:10.945Z,4.60
2018-02-11T23:26:39.893Z,5.47
2018-02-11T23:29:12.257Z,4.30
2018-02-11T23:31:40.433Z,4.93
2018-02-11T23:34:08.682Z,5.13
2018-02-11T23:36:36.855Z,4.17
2018-02-11T23:39:22.628Z,4.87
2018-02-11T23:41:50.762Z,5.10
2018-02-11T23:44:18.904Z,5.73
2018-02-11T23:46:47.034Z,5.40
2018-02-11T23:49:20.988Z,5.50
2018-02-11T23:51:49.116Z,5.13
2018-02-11T23:54:18.061Z,5.80
2018-02-11T23:56:46.188Z,6.20
2018-02-11T23:59:24.736Z,6.50
